sensor_id;sensor_type;location;lat;lon;timestamp;P1;durP1;ratioP1;P2;durP2;ratioP2
35496;SDS011;21609;49.298;6.844;2023-04-16T00:00:38;2.80;;;1.40;;
35496;SDS011;21609;49.298;6.844;2023-04-16T00:03:04;0.82;;;0.77;;
35496;SDS011;21609;49.298;6.844;2023-04-16T00:05:29;1.92;;;1.25;;
35496;SDS011;21609;49.298;6.844;2023-04-16T00:07:55;1.67;;;1.10;;
35496;SDS011;21609;49.298;6.844;2023-04-16T00:10:20;0.98;;;0.90;;
35496;SDS011;21609;49.298;6.844;2023-04-16T00:12:46;1.25;;;0.98;;
35496;SDS011;21609;49.298;6.844;2023-04-16T00:15:11;1.27;;;0.90;;
35496;SDS011;21609;49.298;6.844;2023-04-16T00:17:37;1.60;;;1.08;;
35496;SDS011;21609;49.298;6.844;2023-04-16T00:20:03;1.63;;;1.10;;
35496;SDS011;21609;49.298;6.844;2023-04-16T00:22:29;1.25;;;1.15;;
35496;SDS011;21609;49.298;6.844;2023-04-16T00:24:55;1.05;;;0.82;;
35496;SDS011;21609;49.298;6.844;2023-04-16T00:27:20;1.30;;;1.10;;
35496;SDS011;21609;49.298;6.844;2023-04-16T00:29:46;2.47;;;1.45;;
35496;SDS011;21609;49.298;6.844;2023-04-16T00:32:12;1.42;;;1.10;;
35496;SDS011;21609;49.298;6.844;2023-04-16T00:34:37;1.33;;;1.20;;
35496;SDS011;21609;49.298;6.844;2023-04-16T00:37:03;0.90;;;0.90;;
35496;SDS011;21609;49.298;6.844;2023-04-16T00:39:28;1.05;;;0.88;;
35496;SDS011;21609;49.298;6.844;2023-04-16T00:41:54;1.33;;;0.80;;
35496;SDS011;21609;49.298;6.844;2023-04-16T00:44:20;1.10;;;1.00;;
35496;SDS011;21609;49.298;6.844;2023-04-16T00:46:45;0.95;;;0.85;;
35496;SDS011;21609;49.298;6.844;2023-04-16T00:49:11;1.55;;;1.15;;
35496;SDS011;21609;49.298;6.844;2023-04-16T00:51:36;0.70;;;0.70;;
35496;SDS011;21609;49.298;6.844;2023-04-16T00:54:02;0.80;;;0.80;;
35496;SDS011;21609;49.298;6.844;2023-04-16T00:56:28;0.90;;;0.70;;
35496;SDS011;21609;49.298;6.844;2023-04-16T00:58:55;0.80;;;0.80;;
35496;SDS011;21609;49.298;6.844;2023-04-16T01:01:21;0.75;;;0.73;;
35496;SDS011;21609;49.298;6.844;2023-04-16T01:03:47;1.10;;;0.75;;
35496;SDS011;21609;49.298;6.844;2023-04-16T01:06:13;1.77;;;1.15;;
35496;SDS011;21609;49.298;6.844;2023-04-16T01:08:41;1.33;;;0.85;;
35496;SDS011;21609;49.298;6.844;2023-04-16T01:11:08;1.48;;;1.33;;
35496;SDS011;21609;49.298;6.844;2023-04-16T01:13:35;0.90;;;0.75;;
35496;SDS011;21609;49.298;6.844;2023-04-16T01:16:07;0.85;;;0.85;;
35496;SDS011;21609;49.298;6.844;2023-04-16T01:18:34;1.00;;;0.82;;
35496;SDS011;21609;49.298;6.844;2023-04-16T01:21:00;1.65;;;1.02;;
35496;SDS011;21609;49.298;6.844;2023-04-16T01:23:26;1.23;;;0.90;;
35496;SDS011;21609;49.298;6.844;2023-04-16T01:25:51;1.42;;;1.00;;
35496;SDS011;21609;49.298;6.844;2023-04-16T01:28:17;0.77;;;0.77;;
35496;SDS011;21609;49.298;6.844;2023-04-16T01:30:42;1.05;;;0.80;;
35496;SDS011;21609;49.298;6.844;2023-04-16T01:33:12;0.70;;;0.70;;
35496;SDS011;21609;49.298;6.844;2023-04-16T01:35:38;1.13;;;0.87;;
35496;SDS011;21609;49.298;6.844;2023-04-16T01:38:05;0.90;;;0.85;;
35496;SDS011;21609;49.298;6.844;2023-04-16T01:40:32;1.15;;;0.68;;
35496;SDS011;21609;49.298;6.844;2023-04-16T01:42:58;0.70;;;0.70;;
35496;SDS011;21609;49.298;6.844;2023-04-16T01:45:24;0.95;;;0.73;;
35496;SDS011;21609;49.298;6.844;2023-04-16T01:47:50;0.85;;;0.55;;
35496;SDS011;21609;49.298;6.844;2023-04-16T01:50:16;0.63;;;0.63;;
35496;SDS011;21609;49.298;6.844;2023-04-16T01:52:43;0.95;;;0.70;;
35496;SDS011;21609;49.298;6.844;2023-04-16T01:55:08;0.63;;;0.63;;
35496;SDS011;21609;49.298;6.844;2023-04-16T01:57:34;0.98;;;0.90;;
35496;SDS011;21609;49.298;6.844;2023-04-16T02:00:00;1.00;;;0.90;;
35496;SDS011;21609;49.298;6.844;2023-04-16T02:02:26;0.80;;;0.80;;
35496;SDS011;21609;49.298;6.844;2023-04-16T02:04:53;0.77;;;0.68;;
35496;SDS011;21609;49.298;6.844;2023-04-16T02:07:19;1.52;;;0.88;;
35496;SDS011;21609;49.298;6.844;2023-04-16T02:09:45;1.13;;;0.88;;
35496;SDS011;21609;49.298;6.844;2023-04-16T02:12:10;1.17;;;0.82;;
35496;SDS011;21609;49.298;6.844;2023-04-16T02:14:36;2.72;;;0.90;;
35496;SDS011;21609;49.298;6.844;2023-04-16T02:17:02;0.80;;;0.60;;
35496;SDS011;21609;49.298;6.844;2023-04-16T02:19:27;0.80;;;0.60;;
35496;SDS011;21609;49.298;6.844;2023-04-16T02:21:53;0.80;;;0.80;;
35496;SDS011;21609;49.298;6.844;2023-04-16T02:24:19;0.80;;;0.80;;
35496;SDS011;21609;49.298;6.844;2023-04-16T02:26:45;0.68;;;0.60;;
35496;SDS011;21609;49.298;6.844;2023-04-16T02:29:11;1.05;;;0.77;;
35496;SDS011;21609;49.298;6.844;2023-04-16T02:31:37;0.50;;;0.50;;
35496;SDS011;21609;49.298;6.844;2023-04-16T02:34:03;0.73;;;0.73;;
35496;SDS011;21609;49.298;6.844;2023-04-16T02:36:29;0.88;;;0.70;;
35496;SDS011;21609;49.298;6.844;2023-04-16T02:38:56;0.50;;;0.50;;
35496;SDS011;21609;49.298;6.844;2023-04-16T02:41:22;0.93;;;0.70;;
35496;SDS011;21609;49.298;6.844;2023-04-16T02:43:47;1.02;;;0.65;;
35496;SDS011;21609;49.298;6.844;2023-04-16T02:46:13;0.70;;;0.70;;
35496;SDS011;21609;49.298;6.844;2023-04-16T02:48:38;0.95;;;0.80;;
35496;SDS011;21609;49.298;6.844;2023-04-16T02:51:04;0.93;;;0.93;;
35496;SDS011;21609;49.298;6.844;2023-04-16T02:53:30;0.80;;;0.80;;
35496;SDS011;21609;49.298;6.844;2023-04-16T02:55:55;0.52;;;0.50;;
35496;SDS011;21609;49.298;6.844;2023-04-16T02:58:21;1.05;;;0.80;;
35496;SDS011;21609;49.298;6.844;2023-04-16T03:00:48;1.02;;;0.95;;
35496;SDS011;21609;49.298;6.844;2023-04-16T03:03:15;0.60;;;0.60;;
35496;SDS011;21609;49.298;6.844;2023-04-16T03:05:40;0.57;;;0.50;;
35496;SDS011;21609;49.298;6.844;2023-04-16T03:08:06;0.70;;;0.70;;
35496;SDS011;21609;49.298;6.844;2023-04-16T03:10:32;0.85;;;0.70;;
35496;SDS011;21609;49.298;6.844;2023-04-16T03:12:59;1.08;;;0.65;;
35496;SDS011;21609;49.298;6.844;2023-04-16T03:15:25;0.85;;;0.70;;
35496;SDS011;21609;49.298;6.844;2023-04-16T03:17:51;0.73;;;0.57;;
35496;SDS011;21609;49.298;6.844;2023-04-16T03:20:19;1.02;;;0.70;;
35496;SDS011;21609;49.298;6.844;2023-04-16T03:22:45;0.82;;;0.82;;
35496;SDS011;21609;49.298;6.844;2023-04-16T03:25:11;0.60;;;0.60;;
35496;SDS011;21609;49.298;6.844;2023-04-16T03:27:37;0.60;;;0.60;;
35496;SDS011;21609;49.298;6.844;2023-04-16T03:30:06;0.85;;;0.80;;
35496;SDS011;21609;49.298;6.844;2023-04-16T03:32:32;1.35;;;0.80;;
35496;SDS011;21609;49.298;6.844;2023-04-16T03:34:57;0.60;;;0.60;;
35496;SDS011;21609;49.298;6.844;2023-04-16T03:37:23;0.60;;;0.60;;
35496;SDS011;21609;49.298;6.844;2023-04-16T03:39:48;0.60;;;0.60;;
35496;SDS011;21609;49.298;6.844;2023-04-16T03:42:14;0.90;;;0.70;;
35496;SDS011;21609;49.298;6.844;2023-04-16T03:44:40;1.00;;;0.70;;
35496;SDS011;21609;49.298;6.844;2023-04-16T03:47:05;0.77;;;0.77;;
35496;SDS011;21609;49.298;6.844;2023-04-16T03:49:31;0.60;;;0.60;;
35496;SDS011;21609;49.298;6.844;2023-04-16T03:51:56;0.57;;;0.52;;
35496;SDS011;21609;49.298;6.844;2023-04-16T03:54:22;1.73;;;0.68;;
35496;SDS011;21609;49.298;6.844;2023-04-16T03:56:47;0.80;;;0.73;;
35496;SDS011;21609;49.298;6.844;2023-04-16T03:59:13;0.70;;;0.70;;
35496;SDS011;21609;49.298;6.844;2023-04-16T04:01:38;0.52;;;0.52;;
35496;SDS011;21609;49.298;6.844;2023-04-16T04:04:04;0.68;;;0.50;;
35496;SDS011;21609;49.298;6.844;2023-04-16T04:06:30;1.00;;;0.95;;
35496;SDS011;21609;49.298;6.844;2023-04-16T04:08:57;0.90;;;0.65;;
35496;SDS011;21609;49.298;6.844;2023-04-16T04:11:23;2.30;;;0.60;;
35496;SDS011;21609;49.298;6.844;2023-04-16T04:13:48;0.50;;;0.50;;
35496;SDS011;21609;49.298;6.844;2023-04-16T04:16:14;0.57;;;0.57;;
35496;SDS011;21609;49.298;6.844;2023-04-16T04:18:40;0.57;;;0.55;;
35496;SDS011;21609;49.298;6.844;2023-04-16T04:21:06;1.25;;;0.85;;
35496;SDS011;21609;49.298;6.844;2023-04-16T04:23:31;0.70;;;0.70;;
35496;SDS011;21609;49.298;6.844;2023-04-16T04:25:57;0.70;;;0.68;;
35496;SDS011;21609;49.298;6.844;2023-04-16T04:28:23;0.60;;;0.60;;
35496;SDS011;21609;49.298;6.844;2023-04-16T04:30:49;0.70;;;0.70;;
35496;SDS011;21609;49.298;6.844;2023-04-16T04:33:14;1.20;;;0.70;;
35496;SDS011;21609;49.298;6.844;2023-04-16T04:35:40;0.50;;;0.50;;
35496;SDS011;21609;49.298;6.844;2023-04-16T04:38:05;1.05;;;0.95;;
35496;SDS011;21609;49.298;6.844;2023-04-16T04:40:31;0.50;;;0.50;;
35496;SDS011;21609;49.298;6.844;2023-04-16T04:42:56;0.85;;;0.85;;
35496;SDS011;21609;49.298;6.844;2023-04-16T04:45:22;0.80;;;0.80;;
35496;SDS011;21609;49.298;6.844;2023-04-16T04:47:53;0.50;;;0.50;;
35496;SDS011;21609;49.298;6.844;2023-04-16T04:50:20;1.00;;;0.90;;
35496;SDS011;21609;49.298;6.844;2023-04-16T04:52:45;0.63;;;0.63;;
35496;SDS011;21609;49.298;6.844;2023-04-16T04:55:11;0.77;;;0.60;;
35496;SDS011;21609;49.298;6.844;2023-04-16T04:57:39;0.90;;;0.70;;
35496;SDS011;21609;49.298;6.844;2023-04-16T05:00:05;0.73;;;0.70;;
35496;SDS011;21609;49.298;6.844;2023-04-16T05:02:31;0.40;;;0.40;;
35496;SDS011;21609;49.298;6.844;2023-04-16T05:04:57;0.88;;;0.80;;
35496;SDS011;21609;49.298;6.844;2023-04-16T05:07:22;0.85;;;0.85;;
35496;SDS011;21609;49.298;6.844;2023-04-16T05:09:48;0.70;;;0.70;;
35496;SDS011;21609;49.298;6.844;2023-04-16T05:12:13;1.00;;;0.90;;
35496;SDS011;21609;49.298;6.844;2023-04-16T05:14:39;1.30;;;0.68;;
35496;SDS011;21609;49.298;6.844;2023-04-16T05:17:04;0.98;;;0.70;;
35496;SDS011;21609;49.298;6.844;2023-04-16T05:19:31;0.50;;;0.50;;
35496;SDS011;21609;49.298;6.844;2023-04-16T05:21:57;0.90;;;0.75;;
35496;SDS011;21609;49.298;6.844;2023-04-16T05:24:23;0.82;;;0.57;;
35496;SDS011;21609;49.298;6.844;2023-04-16T05:26:48;0.95;;;0.40;;
35496;SDS011;21609;49.298;6.844;2023-04-16T05:29:14;1.27;;;0.70;;
35496;SDS011;21609;49.298;6.844;2023-04-16T05:31:39;0.70;;;0.63;;
35496;SDS011;21609;49.298;6.844;2023-04-16T05:34:05;1.05;;;0.85;;
35496;SDS011;21609;49.298;6.844;2023-04-16T05:36:30;1.15;;;1.05;;
35496;SDS011;21609;49.298;6.844;2023-04-16T05:38:56;1.17;;;0.73;;
35496;SDS011;21609;49.298;6.844;2023-04-16T05:41:22;0.60;;;0.60;;
35496;SDS011;21609;49.298;6.844;2023-04-16T05:43:47;0.70;;;0.60;;
35496;SDS011;21609;49.298;6.844;2023-04-16T05:46:13;1.77;;;0.60;;
35496;SDS011;21609;49.298;6.844;2023-04-16T05:48:38;1.02;;;0.60;;
35496;SDS011;21609;49.298;6.844;2023-04-16T05:51:04;2.47;;;0.60;;
35496;SDS011;21609;49.298;6.844;2023-04-16T05:53:29;0.93;;;0.60;;
35496;SDS011;21609;49.298;6.844;2023-04-16T05:55:55;0.68;;;0.50;;
35496;SDS011;21609;49.298;6.844;2023-04-16T05:58:20;0.73;;;0.73;;
35496;SDS011;21609;49.298;6.844;2023-04-16T06:00:46;1.23;;;0.80;;
35496;SDS011;21609;49.298;6.844;2023-04-16T06:03:11;2.03;;;0.70;;
35496;SDS011;21609;49.298;6.844;2023-04-16T06:05:37;1.30;;;0.70;;
35496;SDS011;21609;49.298;6.844;2023-04-16T06:08:02;1.02;;;0.70;;
35496;SDS011;21609;49.298;6.844;2023-04-16T06:10:28;0.80;;;0.60;;
35496;SDS011;21609;49.298;6.844;2023-04-16T06:12:53;0.63;;;0.63;;
35496;SDS011;21609;49.298;6.844;2023-04-16T06:15:19;0.75;;;0.75;;
35496;SDS011;21609;49.298;6.844;2023-04-16T06:17:45;0.85;;;0.82;;
35496;SDS011;21609;49.298;6.844;2023-04-16T06:20:10;0.88;;;0.80;;
35496;SDS011;21609;49.298;6.844;2023-04-16T06:22:36;0.85;;;0.50;;
35496;SDS011;21609;49.298;6.844;2023-04-16T06:25:02;0.52;;;0.50;;
35496;SDS011;21609;49.298;6.844;2023-04-16T06:27:28;1.17;;;0.77;;
35496;SDS011;21609;49.298;6.844;2023-04-16T06:29:55;0.60;;;0.60;;
35496;SDS011;21609;49.298;6.844;2023-04-16T06:32:21;0.60;;;0.52;;
35496;SDS011;21609;49.298;6.844;2023-04-16T06:34:46;0.57;;;0.57;;
35496;SDS011;21609;49.298;6.844;2023-04-16T06:37:12;0.98;;;0.85;;
35496;SDS011;21609;49.298;6.844;2023-04-16T06:39:37;1.83;;;0.63;;
35496;SDS011;21609;49.298;6.844;2023-04-16T06:42:03;5.32;;;1.33;;
35496;SDS011;21609;49.298;6.844;2023-04-16T06:44:28;0.70;;;0.70;;
35496;SDS011;21609;49.298;6.844;2023-04-16T06:46:54;1.05;;;0.90;;
35496;SDS011;21609;49.298;6.844;2023-04-16T06:49:20;1.08;;;0.75;;
35496;SDS011;21609;49.298;6.844;2023-04-16T06:51:45;4.22;;;1.55;;
35496;SDS011;21609;49.298;6.844;2023-04-16T06:54:11;1.15;;;0.90;;
35496;SDS011;21609;49.298;6.844;2023-04-16T06:56:37;2.38;;;0.90;;
35496;SDS011;21609;49.298;6.844;2023-04-16T06:59:02;5.88;;;1.10;;
35496;SDS011;21609;49.298;6.844;2023-04-16T07:01:28;1.40;;;0.80;;
35496;SDS011;21609;49.298;6.844;2023-04-16T07:03:55;1.20;;;1.08;;
35496;SDS011;21609;49.298;6.844;2023-04-16T07:06:21;2.88;;;0.70;;
35496;SDS011;21609;49.298;6.844;2023-04-16T07:08:47;0.90;;;0.60;;
35496;SDS011;21609;49.298;6.844;2023-04-16T07:11:12;2.22;;;0.77;;
35496;SDS011;21609;49.298;6.844;2023-04-16T07:13:38;0.75;;;0.63;;
35496;SDS011;21609;49.298;6.844;2023-04-16T07:16:04;0.98;;;0.80;;
35496;SDS011;21609;49.298;6.844;2023-04-16T07:18:30;0.77;;;0.73;;
35496;SDS011;21609;49.298;6.844;2023-04-16T07:20:56;1.20;;;1.02;;
35496;SDS011;21609;49.298;6.844;2023-04-16T07:23:21;0.90;;;0.70;;
35496;SDS011;21609;49.298;6.844;2023-04-16T07:25:47;0.98;;;0.70;;
35496;SDS011;21609;49.298;6.844;2023-04-16T07:28:12;1.33;;;1.23;;
35496;SDS011;21609;49.298;6.844;2023-04-16T07:30:40;0.70;;;0.70;;
35496;SDS011;21609;49.298;6.844;2023-04-16T07:33:06;0.90;;;0.70;;
35496;SDS011;21609;49.298;6.844;2023-04-16T07:35:31;0.63;;;0.60;;
35496;SDS011;21609;49.298;6.844;2023-04-16T07:37:57;1.33;;;0.95;;
35496;SDS011;21609;49.298;6.844;2023-04-16T07:40:22;0.73;;;0.60;;
35496;SDS011;21609;49.298;6.844;2023-04-16T07:42:48;1.08;;;0.93;;
35496;SDS011;21609;49.298;6.844;2023-04-16T07:45:14;3.10;;;0.80;;
35496;SDS011;21609;49.298;6.844;2023-04-16T07:47:41;1.08;;;0.98;;
35496;SDS011;21609;49.298;6.844;2023-04-16T07:50:06;1.15;;;0.77;;
35496;SDS011;21609;49.298;6.844;2023-04-16T07:52:32;4.95;;;0.63;;
35496;SDS011;21609;49.298;6.844;2023-04-16T07:54:58;1.48;;;0.77;;
35496;SDS011;21609;49.298;6.844;2023-04-16T07:57:23;4.18;;;1.00;;
35496;SDS011;21609;49.298;6.844;2023-04-16T07:59:49;2.05;;;0.77;;
35496;SDS011;21609;49.298;6.844;2023-04-16T08:02:14;1.23;;;0.60;;
35496;SDS011;21609;49.298;6.844;2023-04-16T08:04:41;0.63;;;0.63;;
35496;SDS011;21609;49.298;6.844;2023-04-16T08:07:06;0.93;;;0.80;;
35496;SDS011;21609;49.298;6.844;2023-04-16T08:09:32;1.52;;;1.00;;
35496;SDS011;21609;49.298;6.844;2023-04-16T08:11:59;1.48;;;0.85;;
35496;SDS011;21609;49.298;6.844;2023-04-16T08:14:25;1.75;;;0.60;;
35496;SDS011;21609;49.298;6.844;2023-04-16T08:16:51;0.80;;;0.60;;
35496;SDS011;21609;49.298;6.844;2023-04-16T08:19:17;1.13;;;1.00;;
35496;SDS011;21609;49.298;6.844;2023-04-16T08:21:42;1.02;;;0.93;;
35496;SDS011;21609;49.298;6.844;2023-04-16T08:24:08;1.95;;;0.55;;
35496;SDS011;21609;49.298;6.844;2023-04-16T08:26:34;1.10;;;0.90;;
35496;SDS011;21609;49.298;6.844;2023-04-16T08:28:59;1.48;;;0.90;;
35496;SDS011;21609;49.298;6.844;2023-04-16T08:31:25;2.40;;;1.10;;
35496;SDS011;21609;49.298;6.844;2023-04-16T08:33:50;1.38;;;1.10;;
35496;SDS011;21609;49.298;6.844;2023-04-16T08:36:16;0.80;;;0.80;;
35496;SDS011;21609;49.298;6.844;2023-04-16T08:38:41;0.98;;;0.90;;
35496;SDS011;21609;49.298;6.844;2023-04-16T08:41:08;1.13;;;0.90;;
35496;SDS011;21609;49.298;6.844;2023-04-16T08:43:37;1.60;;;1.00;;
35496;SDS011;21609;49.298;6.844;2023-04-16T08:46:05;1.17;;;1.00;;
35496;SDS011;21609;49.298;6.844;2023-04-16T08:48:33;1.40;;;1.17;;
35496;SDS011;21609;49.298;6.844;2023-04-16T08:50:59;1.85;;;1.00;;
35496;SDS011;21609;49.298;6.844;2023-04-16T08:53:34;0.80;;;0.80;;
35496;SDS011;21609;49.298;6.844;2023-04-16T08:56:06;1.10;;;1.00;;
35496;SDS011;21609;49.298;6.844;2023-04-16T08:58:35;0.98;;;0.73;;
35496;SDS011;21609;49.298;6.844;2023-04-16T09:01:03;1.50;;;1.40;;
35496;SDS011;21609;49.298;6.844;2023-04-16T09:03:32;1.00;;;0.90;;
35496;SDS011;21609;49.298;6.844;2023-04-16T09:05:58;2.95;;;1.02;;
35496;SDS011;21609;49.298;6.844;2023-04-16T09:08:25;1.20;;;1.10;;
35496;SDS011;21609;49.298;6.844;2023-04-16T09:10:51;2.10;;;0.80;;
35496;SDS011;21609;49.298;6.844;2023-04-16T09:13:19;1.65;;;1.23;;
35496;SDS011;21609;49.298;6.844;2023-04-16T09:15:47;1.77;;;1.20;;
35496;SDS011;21609;49.298;6.844;2023-04-16T09:18:17;1.20;;;1.10;;
35496;SDS011;21609;49.298;6.844;2023-04-16T09:20:44;1.45;;;1.20;;
35496;SDS011;21609;49.298;6.844;2023-04-16T09:23:10;1.52;;;1.25;;
35496;SDS011;21609;49.298;6.844;2023-04-16T09:25:35;1.58;;;1.40;;
35496;SDS011;21609;49.298;6.844;2023-04-16T09:28:02;2.67;;;1.30;;
35496;SDS011;21609;49.298;6.844;2023-04-16T09:30:28;1.95;;;1.17;;
35496;SDS011;21609;49.298;6.844;2023-04-16T09:35:49;1.52;;;1.17;;
35496;SDS011;21609;49.298;6.844;2023-04-16T09:38:16;3.10;;;0.80;;
35496;SDS011;21609;49.298;6.844;2023-04-16T09:40:41;0.70;;;0.70;;
35496;SDS011;21609;49.298;6.844;2023-04-16T09:43:11;1.05;;;0.90;;
35496;SDS011;21609;49.298;6.844;2023-04-16T09:45:47;1.20;;;1.02;;
35496;SDS011;21609;49.298;6.844;2023-04-16T09:48:14;1.35;;;1.25;;
35496;SDS011;21609;49.298;6.844;2023-04-16T09:50:45;2.47;;;1.10;;
35496;SDS011;21609;49.298;6.844;2023-04-16T09:53:20;0.95;;;0.85;;
35496;SDS011;21609;49.298;6.844;2023-04-16T09:55:48;1.13;;;1.00;;
35496;SDS011;21609;49.298;6.844;2023-04-16T09:58:17;1.20;;;1.10;;
35496;SDS011;21609;49.298;6.844;2023-04-16T10:00:43;1.45;;;1.05;;
35496;SDS011;21609;49.298;6.844;2023-04-16T10:03:08;1.95;;;1.25;;
35496;SDS011;21609;49.298;6.844;2023-04-16T10:05:34;2.33;;;0.80;;
35496;SDS011;21609;49.298;6.844;2023-04-16T10:08:00;1.00;;;0.90;;
35496;SDS011;21609;49.298;6.844;2023-04-16T10:10:26;0.80;;;0.80;;
35496;SDS011;21609;49.298;6.844;2023-04-16T10:12:56;2.15;;;1.00;;
35496;SDS011;21609;49.298;6.844;2023-04-16T10:15:22;0.98;;;0.95;;
35496;SDS011;21609;49.298;6.844;2023-04-16T10:17:48;1.23;;;1.05;;
35496;SDS011;21609;49.298;6.844;2023-04-16T10:20:15;1.17;;;1.00;;
35496;SDS011;21609;49.298;6.844;2023-04-16T10:22:41;1.08;;;0.90;;
35496;SDS011;21609;49.298;6.844;2023-04-16T10:25:07;1.48;;;1.38;;
35496;SDS011;21609;49.298;6.844;2023-04-16T10:27:34;0.80;;;0.80;;
35496;SDS011;21609;49.298;6.844;2023-04-16T10:30:01;1.30;;;1.20;;
35496;SDS011;21609;49.298;6.844;2023-04-16T10:32:27;1.73;;;1.27;;
35496;SDS011;21609;49.298;6.844;2023-04-16T10:34:55;1.90;;;1.30;;
35496;SDS011;21609;49.298;6.844;2023-04-16T10:37:39;1.10;;;1.00;;
35496;SDS011;21609;49.298;6.844;2023-04-16T10:40:20;1.23;;;1.13;;
35496;SDS011;21609;49.298;6.844;2023-04-16T10:42:54;1.05;;;0.95;;
35496;SDS011;21609;49.298;6.844;2023-04-16T10:45:28;1.30;;;1.20;;
35496;SDS011;21609;49.298;6.844;2023-04-16T10:48:05;1.08;;;0.85;;
35496;SDS011;21609;49.298;6.844;2023-04-16T10:50:33;1.05;;;0.77;;
35496;SDS011;21609;49.298;6.844;2023-04-16T10:58:33;1.55;;;0.98;;
35496;SDS011;21609;49.298;6.844;2023-04-16T11:01:00;1.13;;;1.02;;
35496;SDS011;21609;49.298;6.844;2023-04-16T11:03:30;1.55;;;1.13;;
35496;SDS011;21609;49.298;6.844;2023-04-16T11:08:42;2.30;;;1.00;;
35496;SDS011;21609;49.298;6.844;2023-04-16T11:11:09;2.20;;;1.10;;
35496;SDS011;21609;49.298;6.844;2023-04-16T11:13:35;2.80;;;1.40;;
35496;SDS011;21609;49.298;6.844;2023-04-16T11:16:02;1.52;;;1.30;;
35496;SDS011;21609;49.298;6.844;2023-04-16T11:18:28;1.23;;;1.13;;
35496;SDS011;21609;49.298;6.844;2023-04-16T11:20:53;1.88;;;1.48;;
35496;SDS011;21609;49.298;6.844;2023-04-16T11:23:19;4.75;;;1.60;;
35496;SDS011;21609;49.298;6.844;2023-04-16T11:25:45;1.50;;;1.40;;
35496;SDS011;21609;49.298;6.844;2023-04-16T11:28:10;1.30;;;1.20;;
35496;SDS011;21609;49.298;6.844;2023-04-16T11:30:36;3.22;;;1.10;;
35496;SDS011;21609;49.298;6.844;2023-04-16T11:33:03;1.40;;;1.30;;
35496;SDS011;21609;49.298;6.844;2023-04-16T11:35:31;1.52;;;1.40;;
35496;SDS011;21609;49.298;6.844;2023-04-16T11:37:57;1.40;;;1.10;;
35496;SDS011;21609;49.298;6.844;2023-04-16T11:40:22;1.23;;;1.10;;
35496;SDS011;21609;49.298;6.844;2023-04-16T11:42:48;1.20;;;1.10;;
35496;SDS011;21609;49.298;6.844;2023-04-16T11:45:13;1.50;;;1.33;;
35496;SDS011;21609;49.298;6.844;2023-04-16T11:47:46;1.52;;;1.13;;
35496;SDS011;21609;49.298;6.844;2023-04-16T11:50:20;1.52;;;1.40;;
35496;SDS011;21609;49.298;6.844;2023-04-16T11:52:47;2.13;;;0.95;;
35496;SDS011;21609;49.298;6.844;2023-04-16T11:55:13;1.70;;;1.40;;
35496;SDS011;21609;49.298;6.844;2023-04-16T11:57:39;2.28;;;1.10;;
35496;SDS011;21609;49.298;6.844;2023-04-16T12:00:05;1.40;;;1.30;;
35496;SDS011;21609;49.298;6.844;2023-04-16T12:02:36;2.00;;;1.40;;
35496;SDS011;21609;49.298;6.844;2023-04-16T12:05:28;1.17;;;0.93;;
35496;SDS011;21609;49.298;6.844;2023-04-16T12:07:55;1.52;;;1.27;;
35496;SDS011;21609;49.298;6.844;2023-04-16T12:10:21;1.23;;;1.13;;
35496;SDS011;21609;49.298;6.844;2023-04-16T12:12:47;3.65;;;1.45;;
35496;SDS011;21609;49.298;6.844;2023-04-16T12:15:12;1.15;;;0.98;;
35496;SDS011;21609;49.298;6.844;2023-04-16T12:17:38;1.67;;;1.35;;
35496;SDS011;21609;49.298;6.844;2023-04-16T12:20:13;2.58;;;1.38;;
35496;SDS011;21609;49.298;6.844;2023-04-16T12:22:40;1.20;;;1.10;;
35496;SDS011;21609;49.298;6.844;2023-04-16T12:25:12;3.78;;;1.73;;
35496;SDS011;21609;49.298;6.844;2023-04-16T12:30:09;2.28;;;1.23;;
35496;SDS011;21609;49.298;6.844;2023-04-16T12:32:35;2.55;;;1.38;;
35496;SDS011;21609;49.298;6.844;2023-04-16T12:35:00;1.27;;;1.17;;
35496;SDS011;21609;49.298;6.844;2023-04-16T12:37:26;1.35;;;1.20;;
35496;SDS011;21609;49.298;6.844;2023-04-16T12:39:52;2.08;;;1.30;;
35496;SDS011;21609;49.298;6.844;2023-04-16T12:42:18;1.63;;;1.40;;
35496;SDS011;21609;49.298;6.844;2023-04-16T12:44:44;1.50;;;1.40;;
35496;SDS011;21609;49.298;6.844;2023-04-16T12:47:09;1.80;;;1.20;;
35496;SDS011;21609;49.298;6.844;2023-04-16T12:49:35;1.33;;;1.23;;
35496;SDS011;21609;49.298;6.844;2023-04-16T12:52:01;1.90;;;1.55;;
35496;SDS011;21609;49.298;6.844;2023-04-16T12:54:27;1.55;;;1.38;;
35496;SDS011;21609;49.298;6.844;2023-04-16T12:56:55;2.25;;;1.58;;
35496;SDS011;21609;49.298;6.844;2023-04-16T12:59:20;1.80;;;1.55;;
35496;SDS011;21609;49.298;6.844;2023-04-16T13:01:46;1.08;;;1.00;;
35496;SDS011;21609;49.298;6.844;2023-04-16T13:04:11;5.25;;;1.58;;
35496;SDS011;21609;49.298;6.844;2023-04-16T13:06:37;4.30;;;1.52;;
35496;SDS011;21609;49.298;6.844;2023-04-16T13:09:03;3.20;;;1.35;;
35496;SDS011;21609;49.298;6.844;2023-04-16T13:11:28;3.45;;;1.30;;
35496;SDS011;21609;49.298;6.844;2023-04-16T13:13:54;3.55;;;1.60;;
35496;SDS011;21609;49.298;6.844;2023-04-16T13:16:19;2.03;;;1.40;;
35496;SDS011;21609;49.298;6.844;2023-04-16T13:18:45;2.75;;;1.60;;
35496;SDS011;21609;49.298;6.844;2023-04-16T13:21:11;2.45;;;1.35;;
35496;SDS011;21609;49.298;6.844;2023-04-16T13:23:37;1.40;;;1.30;;
35496;SDS011;21609;49.298;6.844;2023-04-16T13:26:02;8.80;;;1.55;;
35496;SDS011;21609;49.298;6.844;2023-04-16T13:28:28;4.80;;;2.08;;
35496;SDS011;21609;49.298;6.844;2023-04-16T13:30:53;3.15;;;1.50;;
35496;SDS011;21609;49.298;6.844;2023-04-16T13:33:19;3.13;;;1.80;;
35496;SDS011;21609;49.298;6.844;2023-04-16T13:35:46;1.48;;;1.38;;
35496;SDS011;21609;49.298;6.844;2023-04-16T13:38:13;1.73;;;1.58;;
35496;SDS011;21609;49.298;6.844;2023-04-16T13:40:38;2.05;;;1.38;;
35496;SDS011;21609;49.298;6.844;2023-04-16T13:43:04;2.33;;;1.77;;
35496;SDS011;21609;49.298;6.844;2023-04-16T13:45:30;2.33;;;1.60;;
35496;SDS011;21609;49.298;6.844;2023-04-16T13:47:55;2.55;;;1.90;;
35496;SDS011;21609;49.298;6.844;2023-04-16T13:50:21;2.08;;;1.70;;
35496;SDS011;21609;49.298;6.844;2023-04-16T13:52:47;1.70;;;1.60;;
35496;SDS011;21609;49.298;6.844;2023-04-16T13:55:12;3.67;;;1.40;;
35496;SDS011;21609;49.298;6.844;2023-04-16T13:57:38;2.83;;;1.60;;
35496;SDS011;21609;49.298;6.844;2023-04-16T14:00:06;1.45;;;1.33;;
35496;SDS011;21609;49.298;6.844;2023-04-16T14:02:32;1.40;;;1.30;;
35496;SDS011;21609;49.298;6.844;2023-04-16T14:04:57;2.03;;;1.83;;
35496;SDS011;21609;49.298;6.844;2023-04-16T14:07:23;1.58;;;1.42;;
35496;SDS011;21609;49.298;6.844;2023-04-16T14:09:51;1.58;;;1.48;;
35496;SDS011;21609;49.298;6.844;2023-04-16T14:12:17;1.52;;;1.42;;
35496;SDS011;21609;49.298;6.844;2023-04-16T14:14:43;1.58;;;1.48;;
35496;SDS011;21609;49.298;6.844;2023-04-16T14:17:08;1.85;;;1.75;;
35496;SDS011;21609;49.298;6.844;2023-04-16T14:19:34;1.70;;;1.33;;
35496;SDS011;21609;49.298;6.844;2023-04-16T14:22:00;2.92;;;1.73;;
35496;SDS011;21609;49.298;6.844;2023-04-16T14:24:25;2.78;;;1.55;;
35496;SDS011;21609;49.298;6.844;2023-04-16T14:26:51;2.35;;;1.92;;
35496;SDS011;21609;49.298;6.844;2023-04-16T14:29:16;2.83;;;1.60;;
35496;SDS011;21609;49.298;6.844;2023-04-16T14:31:42;2.20;;;1.88;;
35496;SDS011;21609;49.298;6.844;2023-04-16T14:34:07;1.77;;;1.45;;
35496;SDS011;21609;49.298;6.844;2023-04-16T14:36:33;5.30;;;1.85;;
35496;SDS011;21609;49.298;6.844;2023-04-16T14:39:00;1.95;;;1.75;;
35496;SDS011;21609;49.298;6.844;2023-04-16T14:41:25;2.30;;;2.08;;
35496;SDS011;21609;49.298;6.844;2023-04-16T14:43:51;2.08;;;1.85;;
35496;SDS011;21609;49.298;6.844;2023-04-16T14:46:16;2.65;;;2.03;;
35496;SDS011;21609;49.298;6.844;2023-04-16T14:48:43;1.92;;;1.70;;
35496;SDS011;21609;49.298;6.844;2023-04-16T14:51:08;3.08;;;2.10;;
35496;SDS011;21609;49.298;6.844;2023-04-16T14:53:37;2.08;;;1.80;;
35496;SDS011;21609;49.298;6.844;2023-04-16T14:56:03;2.03;;;1.55;;